MUIV weather

Nuevitas Airport
Nuevitas, Camag├╝ey, Cuba

Public forecast

Using degrees Celsius for public forecast. Weather courtesy of forecast.io.

Closest aviation weather report (METAR) to Nuevitas Airport

Closest report is Ignacio Agramonte International Airport, 33.9 nm (62.7 km) WSW. Retrieved 2019/11/15 08:51 UTC (13 minutes ago):

MUCM 150851Z 03005KT 9000 NSC 22/22 Q1014

Closest aviation forecast (TAF) to Nuevitas Airport

Closest forecast is Ignacio Agramonte International Airport, 33.9 nm (62.7 km) WSW. Retrieved 2019/11/15 06:07 UTC (3 hours ago):

TAF MUCM 150500Z 1506/1606 VRB03KT 9000 SCT020 TEMPO 1506/1514 5000 BR